createdAt,value
2022-11-20T00:00:55.324Z,2.90
2022-11-20T00:03:23.150Z,2.80
2022-11-20T00:05:50.926Z,2.70
2022-11-20T00:08:18.638Z,2.90
2022-11-20T00:10:47.625Z,2.60
2022-11-20T00:13:15.952Z,2.80
2022-11-20T00:15:45.188Z,2.90
2022-11-20T00:18:12.953Z,2.90
2022-11-20T00:20:40.678Z,2.80
2022-11-20T00:23:08.802Z,2.90
2022-11-20T00:25:36.683Z,3.00
2022-11-20T00:28:04.658Z,3.00
2022-11-20T00:30:32.444Z,2.90
2022-11-20T00:33:01.526Z,2.80
2022-11-20T00:35:29.267Z,3.00
2022-11-20T00:37:57.005Z,3.00
2022-11-20T00:40:24.748Z,3.10
2022-11-20T00:42:52.466Z,2.80
2022-11-20T00:45:20.300Z,2.90
2022-11-20T00:47:48.043Z,2.80
2022-11-20T00:50:17.198Z,2.70
2022-11-20T00:52:44.927Z,2.80
2022-11-20T00:55:12.653Z,2.80
2022-11-20T00:57:40.415Z,2.70
2022-11-20T01:00:09.360Z,2.60
2022-11-20T01:02:37.120Z,2.50
2022-11-20T01:05:05.345Z,2.80
2022-11-20T01:07:34.550Z,2.80
2022-11-20T01:10:02.478Z,2.70
2022-11-20T01:12:30.180Z,2.70
2022-11-20T01:14:57.918Z,2.80
2022-11-20T01:17:25.653Z,2.50
2022-11-20T01:19:53.425Z,2.60
2022-11-20T01:22:21.193Z,2.80
2022-11-20T01:24:50.304Z,2.60
2022-11-20T01:27:18.074Z,2.80
2022-11-20T01:29:45.790Z,2.60
2022-11-20T01:32:13.544Z,2.80
2022-11-20T01:34:41.298Z,2.80
2022-11-20T01:37:09.024Z,2.70
2022-11-20T01:39:36.759Z,2.60
2022-11-20T01:42:23.396Z,2.80
2022-11-20T01:44:55.265Z,2.80
2022-11-20T01:47:28.848Z,2.60
2022-11-20T01:50:01.466Z,2.60
2022-11-20T01:52:34.557Z,2.90
2022-11-20T01:55:07.768Z,2.80
2022-11-20T01:57:37.682Z,2.80
2022-11-20T02:00:09.071Z,2.90
2022-11-20T02:02:46.812Z,2.90
2022-11-20T02:05:21.365Z,2.70
2022-11-20T02:07:50.087Z,2.90
2022-11-20T02:10:18.059Z,2.80
2022-11-20T02:13:04.665Z,2.80
2022-11-20T02:15:34.149Z,2.60
2022-11-20T02:18:02.382Z,2.60
2022-11-20T02:20:30.195Z,2.50
2022-11-20T02:23:05.105Z,2.70
2022-11-20T02:25:35.787Z,2.60
2022-11-20T02:28:04.237Z,2.70
2022-11-20T02:30:31.978Z,2.50
2022-11-20T02:33:00.108Z,2.60
2022-11-20T02:35:45.638Z,2.50
2022-11-20T02:38:13.634Z,2.70
2022-11-20T02:40:43.147Z,2.70
2022-11-20T02:43:11.117Z,2.60
2022-11-20T02:45:39.391Z,2.70
2022-11-20T02:48:08.287Z,2.70
2022-11-20T02:50:38.832Z,2.80
2022-11-20T02:55:34.930Z,2.20
2022-11-20T03:03:00.677Z,2.20
2022-11-20T03:05:28.424Z,2.10
2022-11-20T03:10:24.269Z,2.20
2022-11-20T03:12:56.062Z,2.00
2022-11-20T03:15:26.028Z,2.20
2022-11-20T03:17:56.337Z,2.00
2022-11-20T03:20:24.152Z,2.20
2022-11-20T03:22:52.053Z,2.00
2022-11-20T03:25:19.824Z,2.10
2022-11-20T03:27:47.645Z,2.00
2022-11-20T03:30:15.968Z,2.20
2022-11-20T03:32:45.332Z,2.00
2022-11-20T03:35:13.159Z,2.00
2022-11-20T03:37:40.886Z,2.00
2022-11-20T03:40:09.668Z,2.20
2022-11-20T03:42:49.584Z,1.90
2022-11-20T03:45:18.769Z,1.90
2022-11-20T03:47:48.405Z,1.90
2022-11-20T03:50:16.428Z,2.10
2022-11-20T03:52:44.270Z,2.10
2022-11-20T03:55:12.137Z,2.20
2022-11-20T03:57:39.883Z,2.10
2022-11-20T04:00:08.697Z,2.20
2022-11-20T04:05:06.543Z,2.10
2022-11-20T04:07:36.358Z,2.10
2022-11-20T04:10:04.748Z,1.90
2022-11-20T04:12:34.293Z,2.00
2022-11-20T04:15:02.039Z,2.00
2022-11-20T04:17:29.760Z,1.80
2022-11-20T04:19:57.524Z,2.10
2022-11-20T04:22:26.689Z,1.80
2022-11-20T04:24:54.546Z,2.00
2022-11-20T04:27:22.777Z,2.20
2022-11-20T04:29:50.518Z,2.10
2022-11-20T04:32:18.257Z,2.10
2022-11-20T04:34:46.002Z,2.00
2022-11-20T04:37:13.838Z,2.00
2022-11-20T04:39:43.030Z,2.00
2022-11-20T04:42:30.324Z,2.00
2022-11-20T04:44:58.925Z,2.20
2022-11-20T04:47:26.676Z,2.10
2022-11-20T04:49:54.478Z,2.20
2022-11-20T04:52:22.294Z,2.20
2022-11-20T04:54:53.695Z,2.10
2022-11-20T04:57:21.776Z,2.30
2022-11-20T04:59:49.543Z,2.30
2022-11-20T05:02:17.430Z,2.20
2022-11-20T05:04:45.176Z,2.30
2022-11-20T05:07:13.041Z,2.30
2022-11-20T05:09:40.870Z,2.40
2022-11-20T05:12:11.007Z,2.40
2022-11-20T05:14:38.837Z,2.30
2022-11-20T05:17:06.737Z,2.30
2022-11-20T05:19:34.495Z,2.50
2022-11-20T05:22:02.211Z,2.20
2022-11-20T05:24:29.943Z,2.50
2022-11-20T05:26:57.671Z,2.40
2022-11-20T05:29:26.796Z,2.60
2022-11-20T05:31:54.514Z,2.50
2022-11-20T05:34:22.310Z,2.30
2022-11-20T05:36:50.056Z,2.20
2022-11-20T05:39:17.813Z,2.40
2022-11-20T05:41:45.564Z,2.30
2022-11-20T05:44:13.783Z,2.30
2022-11-20T05:46:42.858Z,2.30
2022-11-20T05:49:10.770Z,2.30
2022-11-20T05:51:38.498Z,2.20
2022-11-20T05:54:06.348Z,2.20
2022-11-20T05:56:34.438Z,2.20
2022-11-20T05:59:02.187Z,2.30
2022-11-20T06:01:29.940Z,2.30
2022-11-20T06:03:59.005Z,2.40
2022-11-20T06:06:27.103Z,2.40
2022-11-20T06:08:55.212Z,2.30
2022-11-20T06:11:23.335Z,2.20
2022-11-20T06:13:51.288Z,2.40
2022-11-20T06:16:21.312Z,2.10
2022-11-20T06:18:49.170Z,2.40
2022-11-20T06:21:20.288Z,2.30
2022-11-20T06:23:49.238Z,2.20
2022-11-20T06:26:18.454Z,2.10
2022-11-20T06:28:46.878Z,2.10
2022-11-20T06:31:16.948Z,2.40
2022-11-20T06:33:45.302Z,2.30
2022-11-20T06:36:14.340Z,2.30
2022-11-20T06:38:43.604Z,2.20
2022-11-20T06:41:15.223Z,2.20
2022-11-20T06:43:43.097Z,2.20
2022-11-20T06:46:12.073Z,2.30
2022-11-20T06:48:39.897Z,2.20
2022-11-20T06:51:09.033Z,2.20
2022-11-20T06:53:37.947Z,1.90
2022-11-20T06:56:08.028Z,2.00
2022-11-20T06:58:36.791Z,2.00
2022-11-20T07:01:06.786Z,1.90
2022-11-20T07:03:34.675Z,2.10
2022-11-20T07:06:03.467Z,2.00
2022-11-20T07:08:31.591Z,1.80
2022-11-20T07:11:00.645Z,2.00
2022-11-20T07:13:30.288Z,1.90
2022-11-20T07:16:02.010Z,2.00
2022-11-20T07:18:29.845Z,2.20
2022-11-20T07:20:57.943Z,1.80
2022-11-20T07:23:25.665Z,2.00
2022-11-20T07:25:53.457Z,2.00
2022-11-20T07:28:21.233Z,2.00
2022-11-20T07:30:53.370Z,1.90
2022-11-20T07:33:21.396Z,1.80
2022-11-20T07:35:49.144Z,2.00
2022-11-20T07:38:17.161Z,2.10
2022-11-20T07:40:45.093Z,2.20
2022-11-20T07:43:12.845Z,2.10
2022-11-20T07:45:40.952Z,1.90
2022-11-20T07:48:10.073Z,2.00
2022-11-20T07:50:37.839Z,1.90
2022-11-20T07:53:06.496Z,1.90
2022-11-20T07:55:34.539Z,2.00
2022-11-20T07:58:02.279Z,2.00
2022-11-20T08:00:30.125Z,2.10
2022-11-20T08:02:57.900Z,2.20
2022-11-20T08:05:26.939Z,2.00
2022-11-20T08:07:54.668Z,2.00
2022-11-20T08:10:22.409Z,2.10
2022-11-20T08:13:09.356Z,2.20
2022-11-20T08:15:38.284Z,2.30
2022-11-20T08:18:31.284Z,2.30
2022-11-20T08:20:57.567Z,2.00
2022-11-20T08:23:25.569Z,2.30
2022-11-20T08:25:53.513Z,2.30
2022-11-20T08:28:22.280Z,2.20
2022-11-20T08:30:51.028Z,2.30
2022-11-20T08:33:19.610Z,2.20
2022-11-20T08:35:47.770Z,2.20
2022-11-20T08:38:16.900Z,2.30
2022-11-20T08:41:06.155Z,2.20
2022-11-20T08:43:34.485Z,2.10
2022-11-20T08:46:02.365Z,2.30
2022-11-20T08:48:30.097Z,2.40
2022-11-20T08:51:00.409Z,2.20
2022-11-20T08:53:29.929Z,2.30
2022-11-20T08:55:58.942Z,2.30
2022-11-20T08:58:27.319Z,2.30
2022-11-20T09:00:55.350Z,2.30
2022-11-20T09:03:24.856Z,2.30
2022-11-20T09:05:59.205Z,2.20
2022-11-20T09:08:26.980Z,2.30
2022-11-20T09:10:56.978Z,2.40
2022-11-20T09:13:25.822Z,2.20
2022-11-20T09:15:57.176Z,2.30
2022-11-20T09:18:25.457Z,2.50
2022-11-20T09:20:53.279Z,2.40
2022-11-20T09:23:21.045Z,2.30
2022-11-20T09:25:48.803Z,2.30
2022-11-20T09:28:19.261Z,2.20
2022-11-20T09:30:47.052Z,2.20
2022-11-20T09:33:14.849Z,2.30
2022-11-20T09:35:44.409Z,2.20
2022-11-20T09:38:12.932Z,2.40
2022-11-20T09:40:45.647Z,2.20
2022-11-20T09:43:20.890Z,2.30
2022-11-20T09:46:03.559Z,2.40
2022-11-20T09:48:57.847Z,2.50
2022-11-20T09:51:40.197Z,2.40
2022-11-20T09:54:17.218Z,2.50
2022-11-20T09:56:47.864Z,2.60
2022-11-20T09:59:35.831Z,2.40
2022-11-20T10:02:10.333Z,2.30
2022-11-20T10:04:45.473Z,2.40
2022-11-20T10:07:31.774Z,2.20
2022-11-20T10:10:01.059Z,2.30
2022-11-20T10:12:36.901Z,2.40
2022-11-20T10:15:18.364Z,2.50
2022-11-20T10:18:04.113Z,2.40
2022-11-20T10:20:42.705Z,2.60
2022-11-20T10:23:37.950Z,2.60
2022-11-20T10:26:16.375Z,2.70
2022-11-20T10:29:00.670Z,2.50
2022-11-20T10:31:34.847Z,2.50
2022-11-20T10:34:12.577Z,2.70
2022-11-20T10:36:45.900Z,2.70
2022-11-20T10:39:24.749Z,2.60
2022-11-20T10:41:54.484Z,2.70
2022-11-20T10:44:37.816Z,2.70
2022-11-20T10:47:12.157Z,2.70
2022-11-20T10:49:41.301Z,2.70
2022-11-20T10:52:16.353Z,2.60
2022-11-20T10:54:58.133Z,2.80
2022-11-20T10:57:37.512Z,2.90
2022-11-20T11:00:07.678Z,2.80
2022-11-20T11:02:42.340Z,2.70
2022-11-20T11:05:24.729Z,2.80
2022-11-20T11:07:55.081Z,3.00
2022-11-20T11:10:27.847Z,2.90
2022-11-20T11:12:56.146Z,3.00
2022-11-20T11:15:29.952Z,3.00
2022-11-20T11:17:59.043Z,3.00
2022-11-20T11:20:27.985Z,3.00
2022-11-20T11:22:57.505Z,3.00
2022-11-20T11:25:29.537Z,3.10
2022-11-20T11:27:59.854Z,3.10
2022-11-20T11:30:30.942Z,3.00
2022-11-20T11:33:08.225Z,3.00
2022-11-20T11:35:40.847Z,3.10
2022-11-20T11:38:16.231Z,3.00
2022-11-20T11:40:44.253Z,3.10
2022-11-20T11:43:39.561Z,2.90
2022-11-20T11:46:27.408Z,3.00
2022-11-20T11:49:02.233Z,3.00
2022-11-20T11:51:39.951Z,3.00
2022-11-20T11:54:17.577Z,3.20
2022-11-20T11:56:46.577Z,3.00
2022-11-20T11:59:20.718Z,2.90
2022-11-20T12:01:56.569Z,3.20
2022-11-20T12:04:39.501Z,3.20
2022-11-20T12:07:44.382Z,3.10
2022-11-20T12:10:03.741Z,3.20
2022-11-20T12:12:37.896Z,3.20
2022-11-20T12:15:11.682Z,3.20
2022-11-20T12:17:39.462Z,3.30
2022-11-20T12:20:14.961Z,3.20
2022-11-20T12:22:52.415Z,3.10
2022-11-20T12:25:24.264Z,3.50
2022-11-20T12:28:23.149Z,3.50
2022-11-20T12:31:02.419Z,3.20
2022-11-20T12:33:52.708Z,3.20
2022-11-20T12:36:34.445Z,3.40
2022-11-20T12:39:15.497Z,3.50
2022-11-20T12:42:14.632Z,3.20
2022-11-20T12:45:13.952Z,3.30
2022-11-20T12:47:52.997Z,3.20
2022-11-20T12:50:29.287Z,3.30
2022-11-20T12:53:04.667Z,3.50
2022-11-20T12:55:42.681Z,3.30
2022-11-20T12:58:17.817Z,3.50
2022-11-20T13:00:56.640Z,3.50
2022-11-20T13:03:38.061Z,3.60
2022-11-20T13:06:17.210Z,3.80
2022-11-20T13:08:54.107Z,3.80
2022-11-20T13:11:29.919Z,3.60
2022-11-20T13:14:18.615Z,3.70
2022-11-20T13:16:52.159Z,3.50
2022-11-20T13:19:20.979Z,3.80
2022-11-20T13:21:51.298Z,3.70
2022-11-20T13:24:27.354Z,3.80
2022-11-20T13:27:21.435Z,3.70
2022-11-20T13:30:14.234Z,3.40
2022-11-20T13:32:54.245Z,3.50
2022-11-20T13:35:33.993Z,3.60
2022-11-20T13:38:04.572Z,3.40
2022-11-20T13:40:33.895Z,3.50
2022-11-20T13:43:13.113Z,3.50
2022-11-20T13:45:40.920Z,3.50
2022-11-20T13:48:23.907Z,3.50
2022-11-20T13:51:02.188Z,3.20
2022-11-20T13:53:44.873Z,3.40
2022-11-20T13:56:23.878Z,3.40
2022-11-20T13:59:05.155Z,3.30
2022-11-20T14:01:35.535Z,3.30
2022-11-20T14:04:09.385Z,3.10
2022-11-20T14:06:43.833Z,3.00
2022-11-20T14:09:14.470Z,3.00
2022-11-20T14:11:49.736Z,3.20
2022-11-20T14:14:20.013Z,3.20
2022-11-20T14:16:48.176Z,3.10
2022-11-20T14:19:31.289Z,3.10
2022-11-20T14:22:18.413Z,3.10
2022-11-20T14:24:46.204Z,2.90
2022-11-20T14:27:17.892Z,2.80
2022-11-20T14:29:47.715Z,3.00
2022-11-20T14:32:18.143Z,3.00
2022-11-20T14:34:48.461Z,2.80
2022-11-20T14:37:25.267Z,2.90
2022-11-20T14:39:55.389Z,2.90
2022-11-20T14:42:26.880Z,3.00
2022-11-20T14:44:57.389Z,2.90
2022-11-20T14:47:28.008Z,3.00
2022-11-20T14:49:57.566Z,2.90
2022-11-20T14:52:27.226Z,2.90
2022-11-20T14:54:56.720Z,3.00
2022-11-20T14:57:28.718Z,2.80
2022-11-20T15:00:08.825Z,2.80
2022-11-20T15:02:40.608Z,2.90
2022-11-20T15:05:08.781Z,3.00
2022-11-20T15:07:38.333Z,2.90
2022-11-20T15:10:08.710Z,3.00
2022-11-20T15:12:40.764Z,2.90
2022-11-20T15:15:13.907Z,2.70
2022-11-20T15:17:43.095Z,3.00
2022-11-20T15:20:15.404Z,3.00
2022-11-20T15:22:43.262Z,2.80
2022-11-20T15:25:14.821Z,2.80
2022-11-20T15:27:44.518Z,2.80
2022-11-20T15:30:16.157Z,2.90
2022-11-20T15:32:44.017Z,2.80
2022-11-20T15:35:12.297Z,2.80
2022-11-20T15:37:40.601Z,2.70
2022-11-20T15:40:10.046Z,2.80
2022-11-20T15:42:37.964Z,2.70
2022-11-20T15:45:07.665Z,2.60
2022-11-20T15:47:37.303Z,2.80
2022-11-20T15:50:05.653Z,2.60
2022-11-20T15:52:41.967Z,2.70
2022-11-20T15:55:12.149Z,2.70
2022-11-20T15:57:39.996Z,2.60
2022-11-20T16:00:10.977Z,2.60
2022-11-20T16:02:38.787Z,2.60
2022-11-20T16:05:12.696Z,2.60
2022-11-20T16:07:40.692Z,2.40
2022-11-20T16:10:09.266Z,2.70
2022-11-20T16:12:54.303Z,2.50
2022-11-20T16:15:41.199Z,2.60
2022-11-20T16:18:12.033Z,2.50
2022-11-20T16:20:40.455Z,2.50
2022-11-20T16:23:08.753Z,2.50
2022-11-20T16:25:36.501Z,2.70
2022-11-20T16:28:04.405Z,2.60
2022-11-20T16:30:35.068Z,2.60
2022-11-20T16:33:03.797Z,2.60
2022-11-20T16:35:32.644Z,2.70
2022-11-20T16:38:00.701Z,2.60
2022-11-20T16:40:28.626Z,2.50
2022-11-20T16:42:56.416Z,2.60
2022-11-20T16:45:27.867Z,2.60
2022-11-20T16:47:59.415Z,2.60
2022-11-20T16:50:27.219Z,2.50
2022-11-20T16:52:55.125Z,2.60
2022-11-20T16:55:22.890Z,2.70
2022-11-20T16:57:50.672Z,2.50
2022-11-20T17:00:18.586Z,2.40
2022-11-20T17:02:46.313Z,2.60
2022-11-20T17:05:15.457Z,2.50
2022-11-20T17:07:43.265Z,2.60
2022-11-20T17:10:11.028Z,2.60
2022-11-20T17:12:38.750Z,2.60
2022-11-20T17:15:07.747Z,2.50
2022-11-20T17:17:35.473Z,2.50
2022-11-20T17:20:03.211Z,2.50
2022-11-20T17:22:32.812Z,2.50
2022-11-20T17:25:00.576Z,2.50
2022-11-20T17:27:28.288Z,2.60
2022-11-20T17:29:57.638Z,2.40
2022-11-20T17:32:25.424Z,2.40
2022-11-20T17:34:53.193Z,2.30
2022-11-20T17:37:20.924Z,2.30
2022-11-20T17:39:50.052Z,2.20
2022-11-20T17:42:30.015Z,2.20
2022-11-20T17:44:58.645Z,2.10
2022-11-20T17:47:26.792Z,2.10
2022-11-20T17:49:55.361Z,2.10
2022-11-20T17:52:23.312Z,2.10
2022-11-20T17:54:55.756Z,2.10
2022-11-20T17:57:41.270Z,2.00
2022-11-20T18:00:13.050Z,2.00
2022-11-20T18:02:40.828Z,2.00
2022-11-20T18:05:09.220Z,2.00
2022-11-20T18:07:41.632Z,2.00
2022-11-20T18:10:11.506Z,1.90
2022-11-20T18:12:39.233Z,1.90
2022-11-20T18:15:07.621Z,1.90
2022-11-20T18:17:36.329Z,1.90
2022-11-20T18:20:27.902Z,1.90
2022-11-20T18:22:52.673Z,1.90
2022-11-20T18:25:21.735Z,1.90
2022-11-20T18:27:49.485Z,1.80
2022-11-20T18:30:17.346Z,1.80
2022-11-20T18:32:45.282Z,1.70
2022-11-20T18:35:13.040Z,1.60
2022-11-20T18:37:40.817Z,1.70
2022-11-20T18:40:10.225Z,1.50
2022-11-20T18:42:57.367Z,1.40
2022-11-20T18:45:25.117Z,1.40
2022-11-20T18:47:52.859Z,1.30
2022-11-20T18:50:20.653Z,1.40
2022-11-20T18:52:48.403Z,1.30
2022-11-20T18:57:45.665Z,1.20
2022-11-20T19:00:14.523Z,1.30
2022-11-20T19:02:43.408Z,1.20
2022-11-20T19:05:11.715Z,1.20
2022-11-20T19:07:39.520Z,1.00
2022-11-20T19:10:07.928Z,0.70
2022-11-20T19:12:35.713Z,0.80
2022-11-20T19:15:05.626Z,0.80
2022-11-20T19:17:33.971Z,0.90
2022-11-20T19:20:01.771Z,0.90
2022-11-20T19:22:29.518Z,1.00
2022-11-20T19:24:57.253Z,1.10
2022-11-20T20:29:26.478Z,0.90
2022-11-20T20:31:54.413Z,0.60
2022-11-20T20:34:22.903Z,0.60
2022-11-20T20:36:50.631Z,0.60
2022-11-20T20:39:19.662Z,0.60
2022-11-20T21:25:50.123Z,0.60
2022-11-20T21:28:19.209Z,0.80
2022-11-20T21:30:47.275Z,0.70
2022-11-20T21:33:15.444Z,0.60
2022-11-20T21:35:43.156Z,0.50
2022-11-20T21:48:05.619Z,0.30
2022-11-20T21:50:35.551Z,0.50
2022-11-20T21:53:03.264Z,0.50
2022-11-20T21:55:31.014Z,0.50
2022-11-20T21:57:58.750Z,0.40
2022-11-20T22:00:26.504Z,0.50
2022-11-20T22:07:53.038Z,0.40
2022-11-20T22:10:20.757Z,0.40
2022-11-20T22:12:48.484Z,0.40
2022-11-20T22:15:23.838Z,0.40
2022-11-20T22:18:14.419Z,0.40
2022-11-20T22:20:42.309Z,0.40
2022-11-20T22:28:06.480Z,0.30
2022-11-20T23:15:16.599Z,0.10
2022-11-20T23:37:32.399Z,0.00
2022-11-20T23:40:01.457Z,0.20
2022-11-20T23:42:29.227Z,-0.10
2022-11-20T23:54:49.791Z,0.00
2022-11-20T23:57:18.870Z,-0.10
2022-11-20T23:59:46.641Z,-0.30
